Uledi, Pennsylvania
Current Conditions -  °F | °C
As of 2:53 PM on Saturday 25 Oct 2014 (Local Time) from KMGW Reporting Station
Clear Clear  
Wind Chill: 66°   Ceiling: Unl
Heat Index: 66°   Visibility: 10mi
Dew Point: 47°   Wind: 12mph
Humidity: 50%   Direction: 210°SSW
Pressure: 29.87"   Gusts: 21mph
Location:  39.9°N, 79.79°W
Report Text: KMGW 251853Z 21010G18KT 10SM CLR 19/08 A2987 RMK AO2 SLP112 T01890083
Loading
Personal Weather Stations






























Interactive Weather Map
Tropical Storm Tracking
New forecast layout! Learn more

10-Day Weather Forecast

Advertisements
Track Severe Weather on mobile